M I D A S
Marine Information and Data Acquisition System
Tripno 2104 of the Zeeleeuw from 2011-05-17 06:26:39 to 2011-05-17 15:57:41
Back to CruiseResearch ActivitiesStationsMapUnderway DataData graphs

EquipmentUnitsComment
TimeDGPSUTC
LatitudeDGPSDM.mWGS84
LongitudeDGPSDM.mWGS84
HeadingGyrodeg 
SOGDGPSknotsSpeed over ground
COGDGPSdegCourse over ground
DepthEcho soundermeters200 kHz
Missing or incorrect values are displayed as -999
Navigation data collected by the RV Zeeleeuw from 2011-05-17 06:31:10 to 2011-05-17 15:59:54
Time Latitude Longitude Heading SOG COG Depth
2011-05-17 06:32:19 51°13.62 2°56.051 115.7 0.5 93 -999
2011-05-17 06:33:18 51°13.619 2°56.061 121.4 0.3 107 6.2
2011-05-17 06:34:16 51°13.615 2°56.068 126.9 0.3 121 6.8
2011-05-17 06:35:15 51°13.614 2°56.07 121.3 0.1 200 6.8
2011-05-17 06:36:15 51°13.613 2°56.069 112.6 0.1 209 6.9
2011-05-17 06:37:17 51°13.625 2°56.022 112.6 4.3 294 -999
2011-05-17 06:38:18 51°13.645 2°55.944 112.1 2.2 295 8.7
2011-05-17 06:39:18 51°13.658 2°55.902 117.4 2.4 300 8.2
2011-05-17 06:40:18 51°13.683 2°55.841 121.5 2.7 304 -999
2011-05-17 06:41:18 51°13.704 2°55.775 104.3 2.8 288 -999
2011-05-17 06:42:17 51°13.711 2°55.742 80.8 0.4 34 11
2011-05-17 06:43:18 51°13.707 2°55.73 48.7 0.5 42 -999
2011-05-17 06:44:18 51°13.7 2°55.735 8.6 2.6 184 -999
2011-05-17 06:45:18 51°13.72 2°55.72 336 4.2 336 10.5
2011-05-17 06:46:16 51°13.806 2°55.651 335.2 7.2 334 9.8
2011-05-17 06:47:16 51°13.923 2°55.567 336.2 7.9 334 9.6
2011-05-17 06:48:16 51°14.045 2°55.48 337.1 8 335 9.5
2011-05-17 06:49:18 51°14.168 2°55.387 335.5 8.5 334 9.3
2011-05-17 06:50:18 51°14.305 2°55.261 330 10.1 328 9.2
2011-05-17 06:51:18 51°14.455 2°55.115 329.8 10.8 328 9.4
2011-05-17 06:52:18 51°14.602 2°54.928 326.1 12 320 10.9
2011-05-17 06:53:16 51°14.759 2°54.739 326.4 12.6 320 10.4
2011-05-17 06:54:16 51°14.927 2°54.543 331.6 12.4 327 10.2
2011-05-17 06:55:14 51°15.081 2°54.342 321.6 12.5 315 10
2011-05-17 06:56:15 51°15.236 2°54.117 326.6 12.3 321 10.2
2011-05-17 06:57:14 51°15.391 2°53.912 326.7 12.3 320 10.6
2011-05-17 06:58:15 51°15.555 2°53.702 329.1 12.5 322 10.2
2011-05-17 06:59:15 51°15.727 2°53.517 337.4 12.4 330 11
2011-05-17 07:00:15 51°15.906 2°53.353 336.8 12.3 330 11.5
2011-05-17 07:01:15 51°16.08 2°53.182 334 12.4 326 10.8
2011-05-17 07:02:14 51°16.253 2°53.02 339.6 12.2 333 10.9
2011-05-17 07:03:14 51°16.439 2°52.89 342.9 12.2 337 11.1
2011-05-17 07:04:14 51°16.624 2°52.761 341.3 12 337 10.4
2011-05-17 07:05:14 51°16.805 2°52.636 344 11.7 342 9
2011-05-17 07:06:13 51°16.991 2°52.579 357.2 11.5 352 8.9
2011-05-17 07:07:15 51°17.187 2°52.526 352.8 11.7 349 8.9
2011-05-17 07:08:14 51°17.37 2°52.521 19.8 11.3 20 9.5
2011-05-17 07:09:13 51°17.54 2°52.639 27.5 11.2 26 9.6
2011-05-17 07:10:14 51°17.706 2°52.792 36.9 11.4 36 9.4
2011-05-17 07:11:13 51°17.849 2°52.981 41.3 11.4 43 9.4
2011-05-17 07:12:15 51°18.004 2°53.174 39 11.4 39 10
2011-05-17 07:13:14 51°18.147 2°53.361 39.9 11.4 39 9.9
2011-05-17 07:14:14 51°18.295 2°53.546 39.3 11.1 35 9.9
2011-05-17 07:15:13 51°18.443 2°53.722 40 11.4 42 10.2
2011-05-17 07:16:15 51°18.575 2°53.956 49.5 11.6 48 10.3
2011-05-17 07:17:14 51°18.7 2°54.178 50.8 11.4 49 10.4
2011-05-17 07:18:13 51°18.821 2°54.402 50.2 11.3 47 10.6
2011-05-17 07:19:15 51°18.926 2°54.663 62.3 11.5 64 10.7
2011-05-17 07:20:14 51°19.011 2°54.924 64.1 11.5 65 10.9
2011-05-17 07:21:14 51°19.098 2°55.191 61.3 11.1 63 10.7
2011-05-17 07:22:13 51°19.181 2°55.453 61.8 11.4 60 10.7
2011-05-17 07:23:15 51°19.275 2°55.725 64.7 11.2 63 10.6
2011-05-17 07:24:15 51°19.36 2°55.987 60.8 11.2 55 10.5
2011-05-17 07:25:14 51°19.45 2°56.239 57.8 11.2 56 10.5
2011-05-17 07:26:14 51°19.513 2°56.519 77.3 11.2 81 10.5
2011-05-17 07:27:15 51°19.55 2°56.819 77.7 11.3 77 10.2
2011-05-17 07:28:14 51°19.589 2°57.107 74.5 11.2 75 10.1
2011-05-17 07:29:13 51°19.636 2°57.384 74.9 11.1 76 10.2
2011-05-17 07:30:14 51°19.694 2°57.672 71.7 11.2 71 9.9
2011-05-17 07:31:14 51°19.74 2°57.965 77.5 11.4 80 9.9
2011-05-17 07:32:15 51°19.783 2°58.268 76.6 11.6 77 9.6
2011-05-17 07:33:15 51°19.826 2°58.556 71.3 11 72 9.5
2011-05-17 07:34:15 51°19.879 2°58.834 72.2 11 76 9.3
2011-05-17 07:35:14 51°19.92 2°59.116 79.9 11.2 77 9.2
2011-05-17 07:36:14 51°19.972 2°59.4 73.1 11 71 9.1
2011-05-17 07:37:15 51°20.019 2°59.684 73.6 10.8 72 8.8
2011-05-17 07:38:13 51°20.075 2°59.947 72.8 10.8 76 8.8
2011-05-17 07:39:14 51°20.115 3°0.231 74.5 10.7 73 8.7
2011-05-17 07:40:13 51°20.175 3°0.489 67.2 10.5 68 8.8
2011-05-17 07:41:15 51°20.239 3°0.762 72.2 10.7 71 8.8
2011-05-17 07:42:15 51°20.307 3°1.025 64.8 10.9 66 8.5
2011-05-17 07:43:14 51°20.371 3°1.289 67.2 10.7 66 8.6
2011-05-17 07:44:14 51°20.428 3°1.562 70.1 10.7 71 8.6
2011-05-17 07:45:15 51°20.491 3°1.838 71.5 10.9 70 8.6
2011-05-17 07:46:15 51°20.548 3°2.115 73.2 11 74 8.6
2011-05-17 07:47:14 51°20.614 3°2.378 64.8 10.8 63 8.8
2011-05-17 07:48:14 51°20.7 3°2.637 62.3 11.1 59 9.2
2011-05-17 07:49:13 51°20.778 3°2.9 67.3 11.3 68 9
2011-05-17 07:50:14 51°20.854 3°3.177 64.3 11.3 63 9.3
2011-05-17 07:51:14 51°20.936 3°3.447 64.7 11.3 68 9.4
2011-05-17 07:52:14 51°21.01 3°3.72 65.3 11.1 65 9.4
2011-05-17 07:53:14 51°21.088 3°3.988 66.1 11.3 69 9.5
2011-05-17 07:54:13 51°21.164 3°4.258 66.4 11.5 68 9.8
2011-05-17 07:55:15 51°21.245 3°4.54 62.6 11.3 62 9.9
2011-05-17 07:56:14 51°21.331 3°4.804 65.2 11.1 66 10.1
2011-05-17 07:57:15 51°21.418 3°5.074 63 11.3 64 10
2011-05-17 07:58:14 51°21.495 3°5.342 67.8 11.3 72 10.3
2011-05-17 07:59:15 51°21.573 3°5.625 63.7 11.5 62 10.3
2011-05-17 08:00:14 51°21.651 3°5.894 66.4 11.2 64 10.7
2011-05-17 08:01:14 51°21.719 3°6.176 71.5 11.2 70 10.7
2011-05-17 08:02:14 51°21.774 3°6.461 73.1 11.3 74 10.7
2011-05-17 08:03:14 51°21.831 3°6.749 72.5 11.3 72 11
2011-05-17 08:04:14 51°21.893 3°7.032 70.6 10.3 71 11.2
2011-05-17 08:05:13 51°21.923 3°7.216 75.6 5.1 79 11.5
2011-05-17 08:06:15 51°21.916 3°7.329 100.6 3.6 115 11.5
2011-05-17 08:07:14 51°21.87 3°7.407 130.6 5.4 143 11.2
2011-05-17 08:08:15 51°21.795 3°7.492 137.4 5.2 150 11
2011-05-17 08:09:14 51°21.722 3°7.527 160.5 4.2 176 10.7
2011-05-17 08:10:13 51°21.659 3°7.526 172 3.7 185 10.6
2011-05-17 08:11:14 51°21.597 3°7.507 184.5 3.7 194 10.1
2011-05-17 08:12:14 51°21.54 3°7.476 194.9 3.6 203 10.3
2011-05-17 08:13:15 51°21.486 3°7.435 204.8 3.4 209 9.9
2011-05-17 08:14:14 51°21.438 3°7.389 210.5 3.4 216 9.5
2011-05-17 08:15:14 51°21.393 3°7.332 225.2 3.5 224 9.3
2011-05-17 08:16:14 51°21.353 3°7.261 238.7 3.6 232 9.5
2011-05-17 08:17:15 51°21.32 3°7.179 249.8 3.7 240 9.3
2011-05-17 08:18:13 51°21.292 3°7.092 251.7 3.9 242 9.3
2011-05-17 08:19:14 51°21.263 3°7.001 253.3 3.6 243 8.9
2011-05-17 08:20:15 51°21.235 3°6.914 253.2 3.7 244 9.3
2011-05-17 08:21:14 51°21.211 3°6.823 257.5 3.8 248 9
2011-05-17 08:22:15 51°21.185 3°6.736 256.3 3.6 246 8.9
2011-05-17 08:23:13 51°21.162 3°6.649 257.5 3.7 246 9.2
2011-05-17 08:24:14 51°21.137 3°6.559 261 3.7 251 8.8
2011-05-17 08:25:13 51°21.121 3°6.467 267.2 3.6 255 9
2011-05-17 08:26:14 51°21.107 3°6.37 271.9 3.6 260 8.9
2011-05-17 08:27:13 51°21.097 3°6.279 272.3 3.5 259 8.9
2011-05-17 08:28:14 51°21.084 3°6.185 268.6 3.5 257 9
2011-05-17 08:29:15 51°21.068 3°6.09 266.5 3.7 253 8.9
2011-05-17 08:30:14 51°21.051 3°5.999 265.7 3.6 252 9.1
2011-05-17 08:31:14 51°21.032 3°5.906 265.7 3.8 253 9.3
2011-05-17 08:32:14 51°21.024 3°5.809 282.8 3.6 269 9.2
2011-05-17 08:33:14 51°21.024 3°5.713 287.1 3.6 273 9.2
2011-05-17 08:34:14 51°21.033 3°5.622 302 3.5 286 9.4
2011-05-17 08:35:14 51°21.059 3°5.547 322.3 3.7 308 9.6
2011-05-17 08:36:13 51°21.103 3°5.466 324.9 4.4 313 9.7
2011-05-17 08:37:14 51°21.159 3°5.389 340.1 4.5 326 9.8
2011-05-17 08:38:13 51°21.223 3°5.332 345 4.4 332 10.1
2011-05-17 08:39:14 51°21.289 3°5.274 344.7 4.3 331 10.5
2011-05-17 08:40:15 51°21.356 3°5.239 0.1 4 349 10.4
2011-05-17 08:41:14 51°21.42 3°5.238 15.3 3.9 8 10.7
2011-05-17 08:42:14 51°21.469 3°5.289 53.7 3.6 61 11
2011-05-17 08:43:14 51°21.482 3°5.387 80.7 3.9 88 10.8
2011-05-17 08:44:14 51°21.48 3°5.492 89.9 3.8 102 10.6
2011-05-17 08:45:14 51°21.46 3°5.578 101 3.2 114 10.8
2011-05-17 08:46:13 51°21.433 3°5.649 114.3 3.2 131 10.5
2011-05-17 08:47:13 51°21.39 3°5.705 132.8 3.4 147 10.5
2011-05-17 08:48:15 51°21.345 3°5.737 145.3 2.6 164 10.4
2011-05-17 08:49:14 51°21.302 3°5.751 156.1 2.5 174 10.6
2011-05-17 08:50:14 51°21.26 3°5.756 163.8 2.5 179 10
2011-05-17 08:51:14 51°21.215 3°5.756 176.9 3.9 185 10.3
2011-05-17 08:52:14 51°21.135 3°5.693 223.1 5.3 220 9.7
2011-05-17 08:53:14 51°21.089 3°5.621 230.2 3.1 226 9.8
2011-05-17 08:54:13 51°21.06 3°5.579 227.4 1.9 216 9.7
2011-05-17 08:55:14 51°21.038 3°5.556 222.8 1.3 210 9.3
2011-05-17 08:56:14 51°21.004 3°5.507 234.6 5.4 232 9.3
2011-05-17 08:57:13 51°20.961 3°5.38 248.3 6.5 243 9.3
2011-05-17 08:58:14 51°20.914 3°5.258 244.8 4 238 9.3
2011-05-17 08:59:14 51°20.892 3°5.19 261.5 2.1 244 9.4
2011-05-17 09:00:14 51°20.881 3°5.152 274.2 1.2 247 9.2
2011-05-17 09:01:13 51°20.874 3°5.134 293.1 0.4 234 9.3
2011-05-17 09:02:15 51°20.884 3°5.109 345.4 1.7 322 9.2
2011-05-17 09:03:14 51°20.912 3°5.119 40.9 2 49 9.3
2011-05-17 09:04:14 51°20.917 3°5.181 84.3 2.8 93 9.4
2011-05-17 09:05:14 51°20.93 3°5.278 66.8 4.2 69 9.2
2011-05-17 09:06:13 51°20.958 3°5.388 64.2 4.7 69 9.6
2011-05-17 09:07:14 51°20.985 3°5.513 69 5 72 9.5
2011-05-17 09:08:14 51°21.008 3°5.644 71.2 5.2 76 9.7
2011-05-17 09:09:14 51°21.031 3°5.778 70 5.2 73 9.5
2011-05-17 09:10:14 51°21.058 3°5.908 68.3 5.2 68 9.3
2011-05-17 09:11:15 51°21.087 3°6.04 69 5.2 73 9.3
2011-05-17 09:12:14 51°21.11 3°6.17 71.2 5.2 75 9.4
2011-05-17 09:13:14 51°21.133 3°6.302 69.8 5.2 72 9.6
2011-05-17 09:14:14 51°21.161 3°6.432 67.5 5.2 70 9.4
2011-05-17 09:15:14 51°21.19 3°6.562 67.6 5.3 71 9.6
2011-05-17 09:16:14 51°21.216 3°6.695 70.9 5.3 75 9.7
2011-05-17 09:17:13 51°21.238 3°6.829 72.2 5.3 76 9.6
2011-05-17 09:18:14 51°21.262 3°6.966 69.8 5.3 72 9.6
2011-05-17 09:19:14 51°21.291 3°7.099 66.8 5.3 68 9.7
2011-05-17 09:20:15 51°21.316 3°7.238 75.4 5.4 82 9.9
2011-05-17 09:21:13 51°21.323 3°7.379 83.8 5.5 89 9.8
2011-05-17 09:22:14 51°21.33 3°7.528 77.6 5.5 80 9.7
2011-05-17 09:23:14 51°21.35 3°7.67 71.9 5.5 75 9.9
2011-05-17 09:24:14 51°21.374 3°7.812 72.3 5.5 75 9.8
2011-05-17 09:25:14 51°21.395 3°7.956 74.8 5.6 78 9.9
2011-05-17 09:26:14 51°21.412 3°8.104 76.3 5.6 81 9.8
2011-05-17 09:27:14 51°21.428 3°8.251 76.1 5.7 80 10
2011-05-17 09:28:13 51°21.447 3°8.396 73 5.6 76 9.8
2011-05-17 09:29:15 51°21.472 3°8.547 71 5.7 75 10.3
2011-05-17 09:30:14 51°21.497 3°8.691 72.7 5.7 76 10.2
2011-05-17 09:31:15 51°21.517 3°8.843 76.1 5.8 78 10.4
2011-05-17 09:32:14 51°21.535 3°8.992 76.8 5.8 79 10.6
2011-05-17 09:33:14 51°21.556 3°9.142 74.1 5.8 75 11.3
2011-05-17 09:34:15 51°21.603 3°9.237 26.8 3.8 25 11.2
2011-05-17 09:35:14 51°21.656 3°9.237 340.8 3.1 339 11.5
2011-05-17 09:36:14 51°21.691 3°9.184 303.3 2.9 298 11.9
2011-05-17 09:37:13 51°21.697 3°9.112 263.2 2.9 254 11.9
2011-05-17 09:38:14 51°21.674 3°9.033 255.6 3.5 249 11.4
2011-05-17 09:39:14 51°21.661 3°8.94 269.3 3.7 261 11.3
2011-05-17 09:40:14 51°21.657 3°8.843 273 3.7 268 11.3
2011-05-17 09:41:14 51°21.653 3°8.746 267.8 3.7 262 11.2
2011-05-17 09:42:13 51°21.641 3°8.652 262.8 3.7 257 11.2
2011-05-17 09:43:14 51°21.627 3°8.552 263.4 3.8 257 11.1
2011-05-17 09:44:14 51°21.615 3°8.452 266.5 3.8 260 10.9
2011-05-17 09:45:14 51°21.605 3°8.355 268.1 3.6 261 11
2011-05-17 09:46:14 51°21.595 3°8.258 265.5 3.8 258 11.3
2011-05-17 09:47:14 51°21.58 3°8.162 258.1 3.8 250 11.2
2011-05-17 09:48:14 51°21.554 3°8.072 252.1 3.7 244 10.8
2011-05-17 09:49:13 51°21.528 3°7.983 254 3.9 244 11.1
2011-05-17 09:50:15 51°21.503 3°7.89 256.7 3.6 250 10.8
2011-05-17 09:51:14 51°21.485 3°7.798 259.2 3.8 253 10.7
2011-05-17 09:52:15 51°21.464 3°7.7 257.6 3.8 251 11
2011-05-17 09:53:14 51°21.444 3°7.606 257.7 3.9 252 10.6
2011-05-17 09:54:15 51°21.42 3°7.508 252.7 3.9 245 10.8
2011-05-17 09:55:13 51°21.393 3°7.418 252.9 3.8 245 10.6
2011-05-17 09:56:14 51°21.369 3°7.325 257.4 3.8 251 10.5
2011-05-17 09:57:13 51°21.352 3°7.23 260.1 3.7 254 10.5
2011-05-17 09:58:14 51°21.329 3°7.081 265.6 8.5 264 10.7
2011-05-17 09:59:15 51°21.367 3°6.825 295 11.3 298 10.8
2011-05-17 10:00:14 51°21.5 3°6.596 323.6 12.3 327 11.4
2011-05-17 10:01:15 51°21.694 3°6.495 353.6 12.2 355 11.9
2011-05-17 10:02:14 51°21.895 3°6.472 358.1 12.3 358 12.6
2011-05-17 10:03:14 51°22.1 3°6.465 358.9 12.3 359 12.9
2011-05-17 10:04:14 51°22.305 3°6.499 5.7 12.4 8 13.5
2011-05-17 10:05:14 51°22.509 3°6.553 9.4 12.6 11 13.6
2011-05-17 10:06:13 51°22.712 3°6.611 9.5 12.6 11 13.3
2011-05-17 10:07:15 51°22.923 3°6.685 15.1 12.6 19 12.8
2011-05-17 10:08:14 51°23.116 3°6.807 17.3 12.7 17 12.7
2011-05-17 10:09:14 51°23.313 3°6.929 16.8 12.7 22 13.2
2011-05-17 10:10:14 51°23.511 3°7.041 12.6 12.6 18 14.5
2011-05-17 10:11:13 51°23.712 3°7.117 4.9 12.5 9 20.2
2011-05-17 10:12:15 51°23.925 3°7.16 0.8 12.4 5 20.3
2011-05-17 10:13:14 51°24.124 3°7.151 353.8 11 359 20.5
2011-05-17 10:14:14 51°24.264 3°7.137 346.7 6.2 354 15.6
2011-05-17 10:15:14 51°24.337 3°7.1 322.9 3.7 328 14.2
2011-05-17 10:16:14 51°24.374 3°7.047 302.7 2.7 305 14.1
2011-05-17 10:17:14 51°24.395 3°6.991 293.4 2.3 294 13.5
2011-05-17 10:18:14 51°24.41 3°6.931 289.3 2.5 285 13.7
2011-05-17 10:19:15 51°24.422 3°6.869 291.3 2.3 290 13.4
2011-05-17 10:20:13 51°24.437 3°6.819 293.7 2.2 294 13.8
2011-05-17 10:21:14 51°24.452 3°6.763 292.9 2.3 294 13.7
2011-05-17 10:22:14 51°24.472 3°6.706 295.4 2.5 297 13.9
2011-05-17 10:23:14 51°24.488 3°6.646 290.7 2.5 291 13.8
2011-05-17 10:24:14 51°24.499 3°6.585 284.8 2.3 281 14
2011-05-17 10:25:13 51°24.505 3°6.524 280.9 2.4 277 14
2011-05-17 10:26:14 51°24.51 3°6.462 281.4 2.3 279 14.2
2011-05-17 10:27:13 51°24.517 3°6.405 282.8 2.2 282 14.4
2011-05-17 10:28:14 51°24.526 3°6.347 284.6 2 283 14.6
2011-05-17 10:29:14 51°24.535 3°6.291 283.5 2.1 285 14.5
2011-05-17 10:30:15 51°24.543 3°6.233 282.4 2.2 280 14.7
2011-05-17 10:31:14 51°24.551 3°6.177 283.9 2.2 286 14.9
2011-05-17 10:32:14 51°24.56 3°6.119 282.2 2.3 282 15.1
2011-05-17 10:33:14 51°24.568 3°6.06 282.3 2.3 282 15.1
2011-05-17 10:34:14 51°24.576 3°6.001 282.1 2.2 281 14.6
2011-05-17 10:35:14 51°24.587 3°5.944 284.1 2.2 287 14.3
2011-05-17 10:36:13 51°24.601 3°5.89 287.5 2.3 295 14.5
2011-05-17 10:37:15 51°24.612 3°5.833 282.7 2.2 285 14.9
2011-05-17 10:38:13 51°24.621 3°5.781 282 2.1 286 14.8
2011-05-17 10:39:14 51°24.63 3°5.73 281 1.9 284 14.7
2011-05-17 10:40:14 51°24.638 3°5.679 282 2 288 15
2011-05-17 10:41:14 51°24.65 3°5.63 284 1.9 291 14.8
2011-05-17 10:42:14 51°24.66 3°5.58 284.5 1.8 291 14.9
2011-05-17 10:43:13 51°24.674 3°5.534 285.9 2 295 15.3
2011-05-17 10:44:15 51°24.687 3°5.482 283.8 2.1 290 15.3
2011-05-17 10:45:14 51°24.698 3°5.432 282.9 2 288 15.2
2011-05-17 10:46:14 51°24.71 3°5.379 283.3 2.1 287 15.3
2011-05-17 10:47:14 51°24.722 3°5.328 283.4 2 291 15.4
2011-05-17 10:48:15 51°24.734 3°5.275 281.7 2.1 288 15.6
2011-05-17 10:49:13 51°24.746 3°5.228 282.4 1.9 293 15.4
2011-05-17 10:50:14 51°24.759 3°5.181 283.6 1.9 295 15.6
2011-05-17 10:51:13 51°24.776 3°5.136 285.7 2 303 15.9
2011-05-17 10:52:14 51°24.793 3°5.091 284.2 2 299 16.2
2011-05-17 10:53:13 51°24.809 3°5.046 282.1 2 299 15.7
2011-05-17 10:54:14 51°24.824 3°5 280.8 1.9 296 16.1
2011-05-17 10:55:15 51°24.841 3°4.958 282.9 1.8 308 16.1
2011-05-17 10:56:14 51°24.861 3°4.917 287.9 2.1 313 16.2
2011-05-17 10:57:14 51°24.887 3°4.875 291.6 2.3 320 16.7
2011-05-17 10:58:14 51°24.915 3°4.836 292.1 2.2 321 16.2
2011-05-17 10:59:15 51°24.941 3°4.795 287.5 2.3 311 16.7
2011-05-17 11:00:13 51°24.965 3°4.746 287.5 2.7 306 16.7
2011-05-17 11:01:14 51°24.995 3°4.686 290.2 2.9 308 16.5
2011-05-17 11:02:14 51°25.02 3°4.625 282.6 2.6 299 16
2011-05-17 11:03:13 51°25.039 3°4.576 280.4 2.3 298 16.3
2011-05-17 11:04:15 51°25.055 3°4.518 275.2 2.4 286 16.5
2011-05-17 11:05:13 51°25.066 3°4.456 277.8 2.6 292 16.2
2011-05-17 11:06:14 51°25.1 3°4.396 303.3 3.4 329 16.3
2011-05-17 11:07:13 51°25.162 3°4.371 328.2 4.4 358 15.8
2011-05-17 11:08:14 51°25.244 3°4.381 347.8 5.3 11 15.3
2011-05-17 11:09:13 51°25.331 3°4.429 4.5 5.8 25 15.4
2011-05-17 11:10:13 51°25.409 3°4.53 45.2 6.4 57 15.1
2011-05-17 11:11:14 51°25.424 3°4.686 115.5 5.4 104 14.7
2011-05-17 11:12:13 51°25.384 3°4.815 136.5 6.3 120 15
2011-05-17 11:13:14 51°25.333 3°4.981 129.3 7.2 115 14.7
2011-05-17 11:14:14 51°25.281 3°5.16 128 7.5 115 14.9
2011-05-17 11:15:14 51°25.229 3°5.342 129 7.5 115 14.9
2011-05-17 11:16:14 51°25.173 3°5.521 131.3 7.5 117 14.9
2011-05-17 11:17:13 51°25.116 3°5.693 133.2 7.5 118 14.9
2011-05-17 11:18:13 51°25.057 3°5.867 133.7 7.5 116 14.8
2011-05-17 11:19:15 51°25.001 3°6.054 129.3 7.6 114 14.4
2011-05-17 11:20:14 51°24.947 3°6.233 130.7 7.5 116 14.4
2011-05-17 11:21:14 51°24.89 3°6.412 132.1 7.5 118 14.5
2011-05-17 11:22:15 51°24.836 3°6.582 133.4 6.6 116 14.4
2011-05-17 11:23:14 51°24.792 3°6.737 131.8 6.4 115 14.3
2011-05-17 11:24:15 51°24.748 3°6.892 132.1 6.3 115 14.2
2011-05-17 11:25:14 51°24.705 3°7.043 133.6 6.3 115 14.5
2011-05-17 11:26:14 51°24.662 3°7.197 132.2 6.4 114 14.4
2011-05-17 11:27:13 51°24.619 3°7.38 109.9 9.1 101 14.2
2011-05-17 11:28:13 51°24.672 3°7.597 33.5 8.7 42 14.1
2011-05-17 11:29:14 51°24.802 3°7.658 349.2 9.6 1 13.5
2011-05-17 11:30:13 51°24.995 3°7.647 349.9 12.7 358 11.5
2011-05-17 11:31:15 51°25.216 3°7.634 350 13 356 11.5
2011-05-17 11:32:13 51°25.427 3°7.627 352.7 13.2 -999 12.1
2011-05-17 11:33:15 51°25.654 3°7.629 353.1 13.2 359 12.3
2011-05-17 11:34:14 51°25.871 3°7.625 353 13.2 359 12.5
2011-05-17 11:35:15 51°26.094 3°7.617 353.1 13.3 359 12
2011-05-17 11:36:14 51°26.31 3°7.616 353.6 13.2 359 12.1
2011-05-17 11:37:14 51°26.532 3°7.614 352.4 13.2 358 13.1
2011-05-17 11:38:14 51°26.741 3°7.546 336.9 12.7 345 13.7
2011-05-17 11:39:13 51°26.941 3°7.452 336.8 12.8 344 14.4
2011-05-17 11:40:15 51°27.153 3°7.362 338.8 12.9 347 14.8
2011-05-17 11:41:13 51°27.351 3°7.286 338.6 10.5 348 15.4
2011-05-17 11:42:14 51°27.423 3°7.21 272 2.6 280 16.1
2011-05-17 11:43:14 51°27.388 3°7.192 198 3.9 177 15.9
2011-05-17 11:44:15 51°27.322 3°7.154 230.6 3.3 219 15.6
2011-05-17 11:45:13 51°27.301 3°7.106 246.9 1.9 243 15.7
2011-05-17 11:46:14 51°27.285 3°7.063 241.2 1.8 234 16
2011-05-17 11:47:14 51°27.259 3°7.013 241.9 2.8 237 16
2011-05-17 11:48:14 51°27.242 3°6.944 252.3 2.8 255 16.1
2011-05-17 11:49:15 51°27.211 3°6.89 220.7 3 201 16.1
2011-05-17 11:50:14 51°27.169 3°6.855 234 2.6 227 15.9
2011-05-17 11:51:14 51°27.151 3°6.791 247.7 2.8 248 15.9
2011-05-17 11:52:14 51°27.131 3°6.723 244 2.9 244 16.1
2011-05-17 11:53:14 51°27.109 3°6.652 244 3 245 15.9
2011-05-17 11:54:13 51°27.09 3°6.58 247.2 3 248 16
2011-05-17 11:55:14 51°27.072 3°6.501 248.8 3.1 251 15.9
2011-05-17 11:56:14 51°27.057 3°6.423 249.6 3.1 253 15.8
2011-05-17 11:57:14 51°27.042 3°6.344 249 3.1 254 15.8
2011-05-17 11:58:15 51°27.025 3°6.265 247 3.1 249 15.8
2011-05-17 11:59:13 51°27.006 3°6.192 245.5 3 248 15.7
2011-05-17 12:00:14 51°26.991 3°6.115 249.8 3 257 15.3
2011-05-17 12:01:14 51°26.979 3°6.036 251.7 2.9 258 15.3
2011-05-17 12:02:14 51°26.969 3°5.962 250.4 2.7 254 15.8
2011-05-17 12:03:14 51°26.973 3°5.888 276.7 3.3 300 15.2
2011-05-17 12:04:13 51°27.023 3°5.831 307.3 4.2 333 15.5
2011-05-17 12:05:13 51°27.088 3°5.784 315.9 4.5 342 15.9
2011-05-17 12:06:14 51°27.167 3°5.763 339.3 5.1 -999 16.3
2011-05-17 12:07:15 51°27.254 3°5.81 22.6 5.8 33 16.9
2011-05-17 12:08:14 51°27.318 3°5.926 65.1 6 63 16.8
2011-05-17 12:09:14 51°27.34 3°6.07 99.3 5.2 84 16.8
2011-05-17 12:10:14 51°27.347 3°6.196 103.1 4.5 85 17
2011-05-17 12:11:13 51°27.351 3°6.307 110.1 4.1 87 16.9
2011-05-17 12:12:14 51°27.353 3°6.419 115.2 4 92 16.9
2011-05-17 12:13:14 51°27.35 3°6.526 118 4 92 16.8
2011-05-17 12:14:14 51°27.35 3°6.634 111.6 4.1 87 16.7
2011-05-17 12:15:14 51°27.356 3°6.744 102.4 4.2 82 16.6
2011-05-17 12:16:15 51°27.372 3°6.857 86.3 4.3 71 16.4
2011-05-17 12:17:13 51°27.401 3°6.961 68.2 4.4 62 16.6
2011-05-17 12:18:14 51°27.44 3°7.063 57.4 4.5 56 16.5
2011-05-17 12:19:14 51°27.481 3°7.163 63.6 4.4 59 16.3
2011-05-17 12:20:14 51°27.512 3°7.267 80 4.3 69 16.2
2011-05-17 12:21:14 51°27.531 3°7.371 97.4 3.9 78 16.2
2011-05-17 12:22:14 51°27.54 3°7.472 112.7 3.7 86 16
2011-05-17 12:23:14 51°27.54 3°7.565 126.3 3.3 94 15.7
2011-05-17 12:24:13 51°27.531 3°7.648 142.8 3 102 15.4
2011-05-17 12:25:15 51°27.517 3°7.722 155.5 2.7 110 14.5
2011-05-17 12:26:14 51°27.509 3°7.782 164.5 2.1 95 13.9
2011-05-17 12:27:15 51°27.51 3°7.834 168.5 1.8 83 14.3
2011-05-17 12:28:14 51°27.517 3°7.882 170 1.8 71 14.2
2011-05-17 12:29:13 51°27.528 3°7.928 173.1 1.9 65 14.9
2011-05-17 12:30:14 51°27.543 3°7.975 173 1.9 63 14.8
2011-05-17 12:31:14 51°27.559 3°8.023 171.1 2 58 15
2011-05-17 12:32:13 51°27.569 3°8.073 161.4 2.3 94 15.5
2011-05-17 12:33:14 51°27.546 3°8.167 137.1 4.9 117 15.6
2011-05-17 12:34:14 51°27.496 3°8.283 150 5.4 134 15.4
2011-05-17 12:35:14 51°27.427 3°8.346 183.7 4.4 167 15.3
2011-05-17 12:36:15 51°27.363 3°8.329 211.8 3.7 201 15.3
2011-05-17 12:37:13 51°27.307 3°8.287 215.7 3.9 210 15.1
2011-05-17 12:38:14 51°27.267 3°8.211 240 3.7 242 15.3
2011-05-17 12:39:14 51°27.24 3°8.121 244.4 3.9 251 15.3
2011-05-17 12:40:14 51°27.234 3°8.013 260.7 4.4 272 15
2011-05-17 12:41:13 51°27.238 3°7.898 262.3 4.5 274 14.8
2011-05-17 12:42:14 51°27.242 3°7.78 260.9 4.3 272 14
2011-05-17 12:43:14 51°27.247 3°7.665 262.6 4.4 276 14.4
2011-05-17 12:44:14 51°27.255 3°7.546 265.4 4.5 278 14.7
2011-05-17 12:45:14 51°27.267 3°7.428 267.5 4.5 279 15
2011-05-17 12:46:14 51°27.279 3°7.308 266.1 4.6 278 15.2
2011-05-17 12:47:13 51°27.286 3°7.192 259.7 4.5 270 15.8
2011-05-17 12:48:14 51°27.279 3°7.075 255 4.3 265 15.6
2011-05-17 12:49:13 51°27.277 3°6.96 259.9 4.4 270 16
2011-05-17 12:50:13 51°27.28 3°6.84 260.7 4.5 273 16
2011-05-17 12:51:14 51°27.282 3°6.719 259.3 4.4 270 16.2
2011-05-17 12:52:14 51°27.279 3°6.6 257.2 4.4 267 16.3
2011-05-17 12:53:13 51°27.276 3°6.484 258.7 4.5 271 16.4
2011-05-17 12:54:15 51°27.281 3°6.358 262.8 4.6 274 16.7
2011-05-17 12:55:14 51°27.284 3°6.238 259.1 4.6 270 16.3
2011-05-17 12:56:14 51°27.272 3°6.123 246.7 4.5 254 16.4
2011-05-17 12:57:13 51°27.251 3°6.013 247 4.5 256 16.2
2011-05-17 12:58:14 51°27.23 3°5.898 247.7 4.5 256 16.3
2011-05-17 12:59:14 51°27.211 3°5.783 249.1 4.4 256 16.4
2011-05-17 13:00:14 51°27.195 3°5.669 249.9 4.3 257 16.5
2011-05-17 13:01:13 51°27.182 3°5.554 252 4.5 262 16.5
2011-05-17 13:02:14 51°27.203 3°5.434 289.4 5.1 308 16.6
2011-05-17 13:03:14 51°27.286 3°5.365 336 6.4 352 17
2011-05-17 13:04:13 51°27.39 3°5.416 35.7 6.9 39 17.2
2011-05-17 13:05:15 51°27.446 3°5.564 86.5 5.7 77 17.2
2011-05-17 13:06:14 51°27.447 3°5.707 111 5.4 93 17
2011-05-17 13:07:13 51°27.439 3°5.85 112.5 5.5 95 16.9
2011-05-17 13:08:14 51°27.431 3°5.999 111.9 5.6 94 16.8
2011-05-17 13:09:13 51°27.423 3°6.144 110 5.6 96 16.9
2011-05-17 13:10:15 51°27.414 3°6.299 110.5 5.6 95 16.7
2011-05-17 13:11:14 51°27.411 3°6.451 104.8 6.9 90 16.6
2011-05-17 13:12:15 51°27.469 3°6.677 53.2 10.5 47 16.8
2011-05-17 13:13:14 51°27.648 3°6.799 12.4 13.4 10 16.9
2011-05-17 13:14:13 51°27.862 3°6.767 331.4 12.7 332 16.9
2011-05-17 13:15:13 51°28.004 3°6.533 299.8 12.2 303 17.9
2011-05-17 13:16:14 51°28.098 3°6.244 290 12.1 296 17.8
2011-05-17 13:17:14 51°28.188 3°5.955 291.6 12.2 298 18.8
2011-05-17 13:18:14 51°28.232 3°5.655 268.6 11.6 272 18.3
2011-05-17 13:19:14 51°28.24 3°5.347 271.1 11.6 276 18
2011-05-17 13:20:14 51°28.269 3°5.041 274.4 11.7 280 18.8
2011-05-17 13:21:14 51°28.3 3°4.736 274.2 11.6 279 20.5
2011-05-17 13:22:13 51°28.325 3°4.436 272.3 11.6 277 22.1
2011-05-17 13:23:14 51°28.351 3°4.125 271.9 11.5 277 23
2011-05-17 13:24:14 51°28.379 3°3.82 275.7 11.6 282 24.1
2011-05-17 13:25:14 51°28.415 3°3.519 274.5 11.5 279 25.1
2011-05-17 13:26:13 51°28.436 3°3.223 270.9 11.3 277 25.4
2011-05-17 13:27:14 51°28.47 3°2.917 275.4 11.4 279 25.9
2011-05-17 13:28:14 51°28.497 3°2.615 272.2 11.5 277 25.8
2011-05-17 13:29:14 51°28.524 3°2.313 275.1 11.5 281 25.9
2011-05-17 13:30:15 51°28.557 3°2.004 272.8 11.6 277 25.2
2011-05-17 13:31:13 51°28.579 3°1.71 271.8 11.5 277 24.8
2011-05-17 13:32:14 51°28.607 3°1.399 274.3 11.7 279 24.6
2011-05-17 13:33:14 51°28.637 3°1.093 273.7 11.6 279 23.4
2011-05-17 13:34:14 51°28.666 3°0.785 274.4 11.7 278 23.2
2011-05-17 13:35:15 51°28.691 3°0.473 272.1 11.6 276 24.5
2011-05-17 13:36:13 51°28.711 3°0.176 272.4 11.5 277 26.6
2011-05-17 13:37:14 51°28.744 2°59.867 280.4 11.6 287 29.2
2011-05-17 13:38:14 51°28.802 2°59.575 277.3 11.3 283 30.8
2011-05-17 13:39:14 51°28.834 2°59.277 272.9 11.3 278 31.6
2011-05-17 13:40:13 51°28.866 2°59.051 278.7 5.8 292 32.3
2011-05-17 13:41:14 51°28.901 2°58.955 276 2.9 309 31.5
2011-05-17 13:42:14 51°28.93 2°58.916 274 1.9 332 31.5
2011-05-17 13:43:13 51°28.959 2°58.904 277.3 1.8 356 31.5
2011-05-17 13:44:14 51°28.989 2°58.904 277.4 1.9 357 31.3
2011-05-17 13:45:13 51°29.02 2°58.893 277.4 2 342 31.1
2011-05-17 13:46:14 51°29.05 2°58.871 271.2 1.8 329 30.9
2011-05-17 13:47:14 51°29.075 2°58.843 270.7 2 321 31
2011-05-17 13:48:15 51°29.1 2°58.811 273 2.1 326 30.9
2011-05-17 13:49:14 51°29.131 2°58.777 279.3 2.4 326 30.5
2011-05-17 13:50:14 51°29.163 2°58.74 277.4 2.3 324 30.4
2011-05-17 13:51:14 51°29.192 2°58.701 273.5 2.3 316 30.2
2011-05-17 13:52:14 51°29.218 2°58.663 270.8 2.1 315 30.1
2011-05-17 13:53:14 51°29.243 2°58.623 274.4 2.2 322 29.8
2011-05-17 13:54:14 51°29.275 2°58.586 279.9 2.4 322 29.7
2011-05-17 13:55:14 51°29.307 2°58.547 279.6 2.5 327 29.1
2011-05-17 13:56:14 51°29.341 2°58.511 276.5 2.2 322 29.3
2011-05-17 13:57:15 51°29.365 2°58.475 263.6 1.5 311 29.3
2011-05-17 13:58:14 51°29.365 2°58.446 226.1 1.5 219 29.5
2011-05-17 13:59:14 51°29.327 2°58.405 222.9 3.3 218 28.9
2011-05-17 14:00:14 51°29.283 2°58.342 227.3 3.7 228 29.1
2011-05-17 14:01:15 51°29.241 2°58.265 228.7 3.8 229 29.2
2011-05-17 14:02:14 51°29.192 2°58.213 208.3 3.5 195 29.1
2011-05-17 14:03:14 51°29.133 2°58.2 201.6 3.6 186 29.5
2011-05-17 14:04:14 51°29.073 2°58.19 202.8 3.6 187 29.4
2011-05-17 14:05:13 51°29.016 2°58.178 204 3.5 190 30
2011-05-17 14:06:14 51°28.958 2°58.155 207.7 3.4 195 30.4
2011-05-17 14:07:14 51°28.902 2°58.128 207.7 3.6 196 30.8
2011-05-17 14:08:14 51°28.844 2°58.108 204 3.6 189 31.1
2011-05-17 14:09:13 51°28.784 2°58.097 202.3 3.7 186 31.6
2011-05-17 14:10:14 51°28.72 2°58.102 190.6 3.8 169 31.6
2011-05-17 14:11:14 51°28.665 2°58.133 184.7 3.3 154 32.6
2011-05-17 14:12:14 51°28.619 2°58.166 187.4 2.8 157 32.7
2011-05-17 14:13:14 51°28.58 2°58.194 190.5 2.3 155 33.1
2011-05-17 14:14:14 51°28.548 2°58.219 192.9 2.1 153 33.2
2011-05-17 14:15:14 51°28.517 2°58.249 181.7 2.4 143 33.4
2011-05-17 14:16:13 51°28.485 2°58.291 177.9 2.7 137 33.5
2011-05-17 14:17:14 51°28.451 2°58.335 180.2 2.5 142 32.4
2011-05-17 14:18:14 51°28.418 2°58.377 181.7 2.3 144 31.8
2011-05-17 14:19:14 51°28.387 2°58.415 183.5 2.3 141 31.3
2011-05-17 14:20:13 51°28.359 2°58.438 200.5 1.6 165 30.9
2011-05-17 14:21:14 51°28.334 2°58.437 220.8 2 214 31.7
2011-05-17 14:22:14 51°28.327 2°58.368 269.8 3.5 293 31.9
2011-05-17 14:23:14 51°28.39 2°58.303 327.2 5.5 344 32.2
2011-05-17 14:24:15 51°28.48 2°58.252 315.7 5.4 333 33.1
2011-05-17 14:25:14 51°28.549 2°58.174 297.8 4.9 317 32.6
2011-05-17 14:26:14 51°28.599 2°58.079 282.6 4.5 304 31.9
2011-05-17 14:27:14 51°28.627 2°57.977 266.1 3.9 287 31.4
2011-05-17 14:28:14 51°28.631 2°57.879 252.7 3.7 268 31.2
2011-05-17 14:29:14 51°28.633 2°57.775 261.5 4 278 31.4
2011-05-17 14:30:14 51°28.652 2°57.665 273 4.6 293 31.7
2011-05-17 14:31:15 51°28.693 2°57.556 286.6 4.9 307 30.7
2011-05-17 14:32:14 51°28.734 2°57.453 275.7 4.4 293 29.9
2011-05-17 14:33:14 51°28.743 2°57.346 251.5 4.7 252 29.6
2011-05-17 14:34:14 51°28.64 2°57.247 205.7 10.2 202 29
2011-05-17 14:35:15 51°28.464 2°57.162 194.9 11.2 190 29.5
2011-05-17 14:36:14 51°28.287 2°57.1 198.6 11.1 196 29.1
2011-05-17 14:37:14 51°28.111 2°57.015 198.2 11.1 191 29.3
2011-05-17 14:38:14 51°27.924 2°56.985 187 11.3 181 30.2
2011-05-17 14:39:14 51°27.735 2°56.972 187.6 11.4 184 29.7
2011-05-17 14:40:14 51°27.547 2°56.927 195.3 11.4 192 28.6
2011-05-17 14:41:14 51°27.363 2°56.856 196.5 11.3 192 23.9
2011-05-17 14:42:14 51°27.178 2°56.793 193.7 11.3 188 22.1
2011-05-17 14:43:14 51°26.992 2°56.742 194.2 11.3 192 21.8
2011-05-17 14:44:14 51°26.806 2°56.676 194.2 11.4 194 22.3
2011-05-17 14:45:14 51°26.62 2°56.608 195.5 11.5 194 21.9
2011-05-17 14:46:15 51°26.431 2°56.542 192.1 11.5 190 20.5
2011-05-17 14:47:14 51°26.246 2°56.476 194.7 11.6 196 19.6
2011-05-17 14:48:14 51°26.06 2°56.403 194 11.6 192 18.3
2011-05-17 14:49:14 51°25.874 2°56.339 193.3 11.5 192 17.8
2011-05-17 14:50:13 51°25.691 2°56.271 193.7 11.5 193 18.2
2011-05-17 14:51:14 51°25.502 2°56.194 194.9 11.4 194 15.1
2011-05-17 14:52:14 51°25.315 2°56.129 194.9 11.5 193 21.7
2011-05-17 14:53:13 51°25.13 2°56.061 193.2 11.7 193 24.1
2011-05-17 14:54:14 51°24.935 2°55.991 194.8 11.9 194 25.8
2011-05-17 14:55:13 51°24.751 2°55.912 196 11.7 195 24.8
2011-05-17 14:56:14 51°24.558 2°55.841 191.8 11.7 192 24.8
2011-05-17 14:57:14 51°24.367 2°55.778 194.7 11.8 192 25.3
2011-05-17 14:58:13 51°24.182 2°55.704 194.7 11.7 193 23.1
2011-05-17 14:59:14 51°23.989 2°55.637 193.8 11.6 192 21.6
2011-05-17 15:00:14 51°23.801 2°55.558 197.4 11.7 197 19.2
2011-05-17 15:01:14 51°23.616 2°55.475 197.3 11.5 197 18.4
2011-05-17 15:02:14 51°23.43 2°55.392 197.5 11.5 197 19
2011-05-17 15:03:13 51°23.246 2°55.313 196.9 11.8 196 20.4
2011-05-17 15:04:14 51°23.055 2°55.232 196 11.9 194 20.4
2011-05-17 15:05:14 51°22.864 2°55.158 195.6 11.9 197 20.4
2011-05-17 15:06:14 51°22.672 2°55.079 195.6 11.9 195 20.6
2011-05-17 15:07:15 51°22.479 2°54.982 198.5 12 197 19.9
2011-05-17 15:08:14 51°22.291 2°54.893 195.4 12.1 195 20.5
2011-05-17 15:09:15 51°22.094 2°54.815 194.4 12 194 20.1
2011-05-17 15:10:13 51°21.908 2°54.724 198.7 12.1 197 18.6
2011-05-17 15:11:15 51°21.709 2°54.632 194.7 12 194 18.3
2011-05-17 15:12:14 51°21.52 2°54.542 199 12 198 18
2011-05-17 15:13:13 51°21.335 2°54.443 198.6 11.8 197 18.2
2011-05-17 15:14:14 51°21.142 2°54.352 197.6 11.9 196 17.9
2011-05-17 15:15:13 51°20.956 2°54.258 199.4 11.9 198 17.9
2011-05-17 15:16:14 51°20.765 2°54.152 200.4 12 200 17.7
2011-05-17 15:17:13 51°20.578 2°54.061 196.1 11.9 195 17
2011-05-17 15:18:14 51°20.387 2°53.957 202 12 201 16.7
2011-05-17 15:19:14 51°20.203 2°53.841 201.1 12 200 16.6
2011-05-17 15:20:14 51°20.011 2°53.753 194.4 12.1 193 16.2
2011-05-17 15:21:14 51°19.818 2°53.661 199.6 12 200 15.3
2011-05-17 15:22:13 51°19.634 2°53.552 201.4 11.9 202 14.4
2011-05-17 15:23:14 51°19.447 2°53.425 202.1 12.1 203 14.2
2011-05-17 15:24:13 51°19.263 2°53.311 198.7 12 199 13.5
2011-05-17 15:25:14 51°19.07 2°53.203 198.9 12.3 201 13.2
2011-05-17 15:26:14 51°18.882 2°53.086 199.7 12.1 199 12.8
2011-05-17 15:27:14 51°18.694 2°52.965 202.6 12.2 203 12.3
2011-05-17 15:28:13 51°18.51 2°52.848 199.2 12.1 199 12.2
2011-05-17 15:29:14 51°18.313 2°52.756 195.2 12.2 196 11.8
2011-05-17 15:30:14 51°18.115 2°52.688 188.5 12.2 189 11.7
2011-05-17 15:31:14 51°17.916 2°52.644 187.9 12 188 11.1
2011-05-17 15:32:13 51°17.721 2°52.603 188.7 12.1 189 11.3
2011-05-17 15:33:14 51°17.518 2°52.571 183.9 12 182 11.1
2011-05-17 15:34:15 51°17.314 2°52.592 173.4 12.3 172 10.9
2011-05-17 15:35:14 51°17.12 2°52.673 164.5 12.3 162 10.3
2011-05-17 15:36:14 51°16.926 2°52.768 160.6 12.3 159 10.1
2011-05-17 15:37:14 51°16.746 2°52.921 151.2 12.5 147 11.3
2011-05-17 15:38:13 51°16.56 2°53.057 159 12.4 158 12.6
2011-05-17 15:39:14 51°16.362 2°53.167 164.5 12.3 165 12.7
2011-05-17 15:40:13 51°16.17 2°53.264 161.5 12.2 163 12.5
2011-05-17 15:41:14 51°15.974 2°53.382 157.3 12.5 155 12.3
2011-05-17 15:42:14 51°15.785 2°53.526 152.5 12.6 152 12.7
2011-05-17 15:43:14 51°15.6 2°53.677 150.2 12.5 145 12.2
2011-05-17 15:44:13 51°15.432 2°53.87 144.3 12.6 145 12
2011-05-17 15:45:14 51°15.259 2°54.07 143.3 12.6 145 11.7
2011-05-17 15:46:13 51°15.102 2°54.276 141.1 12.1 138 11.5
2011-05-17 15:47:13 51°14.944 2°54.471 143.8 12 145 11.7
2011-05-17 15:48:15 51°14.778 2°54.663 142.7 12 146 -999
2011-05-17 15:49:15 51°14.619 2°54.852 141.3 11.8 142 11.8
2011-05-17 15:50:13 51°14.471 2°55.048 140.2 11.7 139 10.7
2011-05-17 15:51:15 51°14.316 2°55.231 143.5 11 143 10.6
2011-05-17 15:52:17 51°14.157 2°55.384 152.2 10.6 153 10.7
2011-05-17 15:53:17 51°14.013 2°55.494 154.7 9.1 155 10.9
2011-05-17 15:54:17 51°13.889 2°55.584 156 7.4 156 11.1
2011-05-17 15:55:14 51°13.797 2°55.658 149.4 6.1 148 11.5
2011-05-17 15:56:14 51°13.723 2°55.769 130.7 6 130 11.9
2011-05-17 15:57:14 51°13.672 2°55.88 125.3 4.6 125 9.5
2011-05-17 15:58:14 51°13.636 2°55.974 117.3 3.8 115 10.2
2011-05-17 15:59:13 51°13.619 2°56.051 107.5 2.6 106 7.4